KGUP/GUP METAR and TAF weather

Enter ICAO airport designator
Station Type Date Time Source
KGUP METAR 2021/05/07 01:53 UTC NOAA

KGUP 070153Z AUTO 22011KT 10SM CLR 24/M08 A3017 RMK AO2 SLP085 T02441083


Station Type Date Time Source
KGUP Decoded METAR 2021/05/07 01:53 UTC NOAA

GALLUP MUNICIPAL AIRPORT, NM, United States (KGUP) 35-31N 108-47W 1971M
May 06, 2021 - 09:53 PM EDT / 2021.05.07 0153 UTC
Wind: from the SW (220 degrees) at 13 MPH (11 KT):0
Visibility: 10 mile(s):0
Sky conditions: clear
Temperature: 75.9 F (24.4 C)
Dew Point: 17.1 F (-8.3 C)
Relative Humidity: 10%
Pressure (altimeter): 30.17 in. Hg (1021 hPa)
ob: KGUP 070153Z AUTO 22011KT 10SM CLR 24/M08 A3017 RMK AO2 SLP085 T02441083
cycle: 2

Station Type Date Time Source
KGUP TAF 2021/05/06 18:30 UTC NOAA

TAF KGUP 061728Z 0618/0718 19010KT P6SM SKC
FM062100 25010G17KT P6SM BKN130
FM070200 VRB03KT P6SM BKN130
FM070900 19007KT P6SM SCT150
FM071500 22009KT P6SM SKC

Example: see airport list